Archival Weather

Snohomish County (Paine Fld)

Everett, Washington (KPAE)

Report from: Tuesday, November 14, 2023 9:53 AM PST
Current time: Friday, June 14, 2024 5:30 AM PDT

Current weather – Weather history – Daily summaries
Weather forecast

Temperature5.6°C (42.1°F)
Wind chill4.6°C (40.2°F)
Dew point1.1°C (34.0°F)
Winds 3 kts (1.5 m/s, 3.5 mph) North-Northeast (20°)
Visibility10 mi. (16.1 km)
Clouds Sky clear
Altimeter30.09 in.Hg (1019 mB)
Relative humidity73 %
Density altitude-1,241 ft. (-378 m)
Sea-level pressure101.9 kPa (1019 mB, 30.10 in.Hg)
Max temp last 6 hours5.6°C (42.1°F)
Min temp last 6 hours1.1°C (34.0°F)
Remarks Automated weather observing station with precipitation discriminator
Pressure falling more quickly
Flight conditions Visual Meteorological Conditions
Raw dataKPAE 141753Z 02003KT 10SM CLR 06/01 A3009 RMK AO2 SLP193 T00560011 10056 20011 58004
An error has occurred. This application may no longer respond until reloaded. Reload 🗙